Zeybe — TCMG4 — position and weather

sailwx.info

Track history (hours):
 
Tides and Currents Weather Stations Pressure Air Temp Water Temp Dewpoint Dewpoint Depression Visibility Wind Speed Wind Dir Waves Ship Positions

Zeybe

Last reported at 2017-Sep-19 19:07 UTC. Time now 2017-Sep-21 10:47 UTC.
Position N 40°53' E 029°11'.

Length 70 m; draft 5 m.

Type: Ship. MMSI: 271042650.

Date/timePositionNaut miles runAvg speedWind from/ knotsBaromVisibWave heightAir tempDewpointWater temp
2017-Sep-19 19:07N 40°53' E 029°11'0 0.1
2017-Sep-19 19:00N 40°53' E 029°11'34 0.8
2017-Sep-17 23:01N 40°26' E 028°42'0 7.9
2017-Sep-17 22:58N 40°26' E 028°41'9 7.7
2017-Sep-17 21:47N 40°27' E 028°29'82 7.3
2017-Sep-17 10:28N 40°23' E 026°41'27 5.8
2017-Sep-17 05:49N 40°03' E 026°18'2 7.1
2017-Sep-17 05:30N 40°01' E 026°16'3 6.2
2017-Sep-17 04:59N 40°01' E 026°12'3 5.4
2017-Sep-17 04:30N 39°60' E 026°09'3 6.6
2017-Sep-17 04:01N 39°57' E 026°08'3 6.9
2017-Sep-17 03:30N 39°53' E 026°06'3 6.8
2017-Sep-17 03:00N 39°50' E 026°05'3 5.6
2017-Sep-17 02:24N 39°47' E 026°04'  
2017-Sep-14 14:57N 36°04' E 031°19'4 8.3
2017-Sep-14 14:29N 36°03' E 031°24'4 8.2
2017-Sep-14 14:00N 36°03' E 031°29'4 8.2
2017-Sep-14 13:31N 36°02' E 031°34'4 8.2
2017-Sep-14 13:00N 36°02' E 031°39'4 8.1
2017-Sep-14 12:30N 36°02' E 031°44'4 8.1
2017-Sep-14 12:00N 36°02' E 031°49'7 8.1
2017-Sep-14 11:06N 36°02' E 031°58'1 8.0
2017-Sep-14 11:00N 36°02' E 031°59'12 8.0
2017-Sep-14 09:34N 36°01' E 032°13'0 8.3
2017-Sep-14 09:30N 36°01' E 032°14'6 8.1
2017-Sep-14 08:44N 36°00' E 032°22'2 8.1
2017-Sep-14 08:31N 35°60' E 032°24'4 7.9
2017-Sep-14 07:59N 35°59' E 032°29'4 7.5
2017-Sep-14 07:30N 35°59' E 032°33'13 7.8
2017-Sep-14 05:50N 35°59' E 032°49'98 7.8
2017-Sep-13 17:11N 36°20' E 034°48'3 7.6
2017-Sep-13 16:46N 36°21' E 034°52'  
Track history (hours):
 
Tides and Currents Weather Stations Pressure Air Temp Water Temp Dewpoint Dewpoint Depression Visibility Wind Speed Wind Dir Waves Ship Positions

Zeybe

Last reported at 2017-Sep-19 19:07 UTC. Time now 2017-Sep-21 10:47 UTC.
Position N 40°53' E 029°11'.

Length 70 m; draft 5 m.

Type: Ship. MMSI: 271042650.

Date/timePositionNaut miles runAvg speedWind from/ knotsBaromVisibWave heightAir tempDewpointWater temp
2017-Sep-19 19:07N 40°53' E 029°11'0 0.1
2017-Sep-19 19:00N 40°53' E 029°11'34 0.8
2017-Sep-17 23:01N 40°26' E 028°42'0 7.9
2017-Sep-17 22:58N 40°26' E 028°41'9 7.7
2017-Sep-17 21:47N 40°27' E 028°29'82 7.3
2017-Sep-17 10:28N 40°23' E 026°41'27 5.8
2017-Sep-17 05:49N 40°03' E 026°18'2 7.1
2017-Sep-17 05:30N 40°01' E 026°16'3 6.2
2017-Sep-17 04:59N 40°01' E 026°12'3 5.4
2017-Sep-17 04:30N 39°60' E 026°09'3 6.6
2017-Sep-17 04:01N 39°57' E 026°08'3 6.9
2017-Sep-17 03:30N 39°53' E 026°06'3 6.8
2017-Sep-17 03:00N 39°50' E 026°05'3 5.6
2017-Sep-17 02:24N 39°47' E 026°04'  
2017-Sep-14 14:57N 36°04' E 031°19'4 8.3
2017-Sep-14 14:29N 36°03' E 031°24'4 8.2
2017-Sep-14 14:00N 36°03' E 031°29'4 8.2
2017-Sep-14 13:31N 36°02' E 031°34'4 8.2
2017-Sep-14 13:00N 36°02' E 031°39'4 8.1
2017-Sep-14 12:30N 36°02' E 031°44'4 8.1
2017-Sep-14 12:00N 36°02' E 031°49'7 8.1
2017-Sep-14 11:06N 36°02' E 031°58'1 8.0
2017-Sep-14 11:00N 36°02' E 031°59'12 8.0
2017-Sep-14 09:34N 36°01' E 032°13'0 8.3
2017-Sep-14 09:30N 36°01' E 032°14'6 8.1
2017-Sep-14 08:44N 36°00' E 032°22'2 8.1
2017-Sep-14 08:31N 35°60' E 032°24'4 7.9
2017-Sep-14 07:59N 35°59' E 032°29'4 7.5
2017-Sep-14 07:30N 35°59' E 032°33'13 7.8
2017-Sep-14 05:50N 35°59' E 032°49'98 7.8
2017-Sep-13 17:11N 36°20' E 034°48'3 7.6
2017-Sep-13 16:46N 36°21' E 034°52'  

Dump ship's entire track history